createdAt,value
2023-03-24T00:01:31.939Z,9.85
2023-03-24T00:03:59.285Z,9.85
2023-03-24T00:06:26.583Z,9.74
2023-03-24T00:08:53.948Z,9.72
2023-03-24T00:11:21.334Z,9.70
2023-03-24T00:13:50.205Z,9.68
2023-03-24T00:16:19.852Z,9.66
2023-03-24T00:18:50.426Z,9.64
2023-03-24T00:21:18.380Z,9.60
2023-03-24T00:23:47.760Z,9.57
2023-03-24T00:26:15.592Z,9.57
2023-03-24T00:28:45.953Z,9.52
2023-03-24T00:31:15.971Z,9.49
2023-03-24T00:33:43.947Z,9.47
2023-03-24T00:36:14.423Z,9.45
2023-03-24T00:38:41.515Z,9.41
2023-03-24T00:41:08.936Z,9.39
2023-03-24T00:43:35.868Z,9.34
2023-03-24T00:46:04.088Z,9.32
2023-03-24T00:48:31.091Z,9.30
2023-03-24T00:50:58.110Z,9.26
2023-03-24T00:53:25.971Z,9.25
2023-03-24T00:55:52.473Z,9.27
2023-03-24T00:58:19.679Z,9.23
2023-03-24T01:00:46.929Z,9.21
2023-03-24T01:03:14.477Z,9.20
2023-03-24T01:05:41.405Z,9.17
2023-03-24T01:08:09.139Z,9.13
2023-03-24T01:10:42.547Z,9.10
2023-03-24T01:13:10.466Z,9.10
2023-03-24T01:15:36.950Z,9.08
2023-03-24T01:18:03.584Z,9.05
2023-03-24T01:20:33.623Z,9.02
2023-03-24T01:23:01.089Z,9.01
2023-03-24T01:25:28.188Z,9.00
2023-03-24T01:27:54.797Z,8.98
2023-03-24T01:30:23.203Z,8.97
2023-03-24T01:32:50.557Z,8.94
2023-03-24T01:35:17.100Z,8.89
2023-03-24T01:37:43.625Z,8.84
2023-03-24T01:40:16.196Z,8.79
2023-03-24T01:42:42.712Z,8.76
2023-03-24T01:45:28.024Z,8.72
2023-03-24T01:47:56.001Z,8.72
2023-03-24T01:50:22.523Z,8.69
2023-03-24T01:52:49.039Z,8.71
2023-03-24T01:55:18.815Z,8.68
2023-03-24T01:57:51.817Z,8.66
2023-03-24T02:00:20.982Z,8.67
2023-03-24T02:02:54.909Z,8.64
2023-03-24T02:05:23.304Z,8.63
2023-03-24T02:07:49.742Z,8.63
2023-03-24T02:10:17.654Z,8.62
2023-03-24T02:12:45.230Z,8.63
2023-03-24T02:15:12.690Z,8.56
2023-03-24T02:17:58.098Z,8.54
2023-03-24T02:20:27.466Z,8.52
2023-03-24T02:23:14.653Z,8.51
2023-03-24T02:25:56.122Z,8.46
2023-03-24T02:28:28.633Z,8.43
2023-03-24T02:31:13.935Z,8.42
2023-03-24T02:33:49.519Z,8.41
2023-03-24T02:36:29.380Z,8.44
2023-03-24T02:38:56.381Z,8.47
2023-03-24T02:41:41.470Z,8.45
2023-03-24T02:44:34.083Z,8.42
2023-03-24T02:47:04.304Z,8.41
2023-03-24T02:49:46.113Z,8.42
2023-03-24T02:52:12.579Z,8.38
2023-03-24T02:54:48.207Z,8.37
2023-03-24T02:57:33.668Z,8.36
2023-03-24T03:00:01.802Z,8.37
2023-03-24T03:02:31.870Z,8.36
2023-03-24T03:05:03.390Z,8.36
2023-03-24T03:07:33.480Z,8.34
2023-03-24T03:09:59.953Z,8.32
2023-03-24T03:12:27.892Z,8.29
2023-03-24T03:14:58.806Z,8.25
2023-03-24T03:17:30.906Z,8.25
2023-03-24T03:20:07.891Z,8.20
2023-03-24T03:22:39.087Z,8.19
2023-03-24T03:25:06.428Z,8.15
2023-03-24T03:27:39.104Z,8.11
2023-03-24T03:30:12.177Z,8.07
2023-03-24T03:32:41.026Z,8.05
2023-03-24T03:35:19.859Z,8.03
2023-03-24T03:38:04.902Z,8.00
2023-03-24T03:40:35.561Z,7.95
2023-03-24T03:43:02.483Z,7.94
2023-03-24T03:45:28.953Z,7.94
2023-03-24T03:47:55.689Z,7.90
2023-03-24T03:50:22.418Z,7.86
2023-03-24T03:52:50.241Z,7.83
2023-03-24T03:55:17.137Z,7.89
2023-03-24T03:57:43.663Z,7.83
2023-03-24T04:00:15.816Z,7.81
2023-03-24T04:02:42.427Z,7.78
2023-03-24T04:05:14.813Z,7.71
2023-03-24T04:08:03.770Z,7.68
2023-03-24T04:10:30.423Z,7.69
2023-03-24T04:12:59.717Z,7.66
2023-03-24T04:15:45.502Z,7.64
2023-03-24T04:18:14.855Z,7.60
2023-03-24T04:20:46.773Z,7.57
2023-03-24T04:23:14.936Z,7.52
2023-03-24T04:25:45.198Z,7.51
2023-03-24T04:28:26.376Z,7.48
2023-03-24T04:30:57.673Z,7.45
2023-03-24T04:33:28.937Z,7.47
2023-03-24T04:36:01.767Z,7.44
2023-03-24T04:38:30.299Z,7.43
2023-03-24T04:40:57.468Z,7.43
2023-03-24T04:43:26.987Z,7.42
2023-03-24T04:45:57.911Z,7.44
2023-03-24T04:48:26.001Z,7.47
2023-03-24T04:50:57.511Z,7.49
2023-03-24T04:53:24.063Z,7.45
2023-03-24T04:55:50.588Z,7.49
2023-03-24T04:58:17.879Z,7.49
2023-03-24T05:00:45.036Z,7.53
2023-03-24T05:03:14.818Z,7.58
2023-03-24T05:05:42.215Z,7.62
2023-03-24T05:08:08.863Z,7.62
2023-03-24T05:10:35.973Z,7.65
2023-03-24T05:13:02.768Z,7.67
2023-03-24T05:15:29.212Z,7.62
2023-03-24T05:17:56.812Z,7.58
2023-03-24T05:20:23.679Z,7.62
2023-03-24T05:22:50.428Z,7.59
2023-03-24T05:25:17.237Z,7.62
2023-03-24T05:27:44.035Z,7.64
2023-03-24T05:30:11.351Z,7.67
2023-03-24T05:32:37.840Z,7.71
2023-03-24T05:35:05.075Z,7.73
2023-03-24T05:37:31.557Z,7.75
2023-03-24T05:39:58.016Z,7.79
2023-03-24T05:42:24.895Z,7.84
2023-03-24T05:44:51.467Z,7.87
2023-03-24T05:47:20.129Z,7.90
2023-03-24T05:49:46.616Z,7.91
2023-03-24T05:52:16.266Z,7.97
2023-03-24T05:54:43.128Z,8.01
2023-03-24T05:57:14.829Z,8.01
2023-03-24T05:59:41.468Z,8.03
2023-03-24T06:02:08.049Z,8.07
2023-03-24T06:04:34.657Z,8.12
2023-03-24T06:07:01.175Z,8.18
2023-03-24T06:09:37.169Z,8.22
2023-03-24T06:12:05.387Z,8.28
2023-03-24T06:14:33.683Z,8.31
2023-03-24T06:17:00.153Z,8.37
2023-03-24T06:19:27.238Z,8.46
2023-03-24T06:21:54.219Z,8.53
2023-03-24T06:24:21.548Z,8.57
2023-03-24T06:26:51.029Z,8.63
2023-03-24T06:29:18.178Z,8.71
2023-03-24T06:31:45.189Z,8.75
2023-03-24T06:34:12.146Z,8.83
2023-03-24T06:36:38.573Z,8.92
2023-03-24T06:39:06.141Z,8.93
2023-03-24T06:41:32.798Z,8.96
2023-03-24T06:43:59.347Z,9.01
2023-03-24T06:46:28.548Z,9.07
2023-03-24T06:48:55.093Z,9.08
2023-03-24T06:51:21.601Z,9.12
2023-03-24T06:53:48.070Z,9.18
2023-03-24T06:56:19.921Z,9.22
2023-03-24T06:58:46.950Z,9.24
2023-03-24T07:01:14.810Z,9.32
2023-03-24T07:03:42.880Z,9.34
2023-03-24T07:06:09.624Z,9.41
2023-03-24T07:08:38.542Z,9.45
2023-03-24T07:11:06.126Z,9.50
2023-03-24T07:13:32.657Z,9.55
2023-03-24T07:15:59.132Z,9.59
2023-03-24T07:18:26.080Z,9.63
2023-03-24T07:20:52.604Z,9.67
2023-03-24T07:23:19.150Z,9.73
2023-03-24T07:25:45.962Z,9.79
2023-03-24T07:28:12.417Z,9.84
2023-03-24T07:30:40.842Z,9.86
2023-03-24T07:33:07.806Z,9.87
2023-03-24T07:35:34.427Z,9.88
2023-03-24T07:38:01.250Z,9.95
2023-03-24T07:40:28.276Z,10.00
2023-03-24T07:42:54.767Z,10.07
2023-03-24T07:45:21.537Z,10.13
2023-03-24T07:47:48.144Z,10.22
2023-03-24T07:50:14.751Z,10.31
2023-03-24T07:52:42.102Z,10.39
2023-03-24T07:55:11.903Z,10.48
2023-03-24T07:57:56.798Z,10.55
2023-03-24T08:00:25.051Z,10.63
2023-03-24T08:02:52.885Z,10.63
2023-03-24T08:05:20.671Z,10.65
2023-03-24T08:07:53.346Z,10.67
2023-03-24T08:10:21.369Z,10.71
2023-03-24T08:12:47.932Z,10.75
2023-03-24T08:15:16.649Z,10.79
2023-03-24T08:17:43.170Z,10.87
2023-03-24T08:20:14.900Z,10.92
2023-03-24T08:22:42.550Z,10.98
2023-03-24T08:25:11.282Z,11.04
2023-03-24T08:27:38.613Z,11.11
2023-03-24T08:30:06.029Z,11.14
2023-03-24T08:32:32.467Z,11.20
2023-03-24T08:34:58.952Z,11.24
2023-03-24T08:37:25.384Z,11.25
2023-03-24T08:39:52.609Z,11.30
2023-03-24T08:42:19.094Z,11.33
2023-03-24T08:44:46.174Z,11.37
2023-03-24T08:47:13.108Z,11.38
2023-03-24T08:49:39.587Z,11.46
2023-03-24T08:52:06.403Z,11.54
2023-03-24T08:54:32.833Z,11.59
2023-03-24T08:56:59.413Z,11.67
2023-03-24T08:59:25.952Z,11.75
2023-03-24T09:01:52.951Z,11.80
2023-03-24T09:04:19.497Z,11.88
2023-03-24T09:06:46.106Z,11.98
2023-03-24T09:09:12.531Z,12.07
2023-03-24T09:11:39.113Z,12.14
2023-03-24T09:14:05.725Z,12.18
2023-03-24T09:16:32.194Z,12.23
2023-03-24T09:18:58.678Z,12.25
2023-03-24T09:21:25.461Z,12.24
2023-03-24T09:23:51.960Z,12.26
2023-03-24T09:26:18.422Z,12.28
2023-03-24T09:28:44.939Z,12.34
2023-03-24T09:31:11.698Z,12.38
2023-03-24T09:33:38.334Z,12.42
2023-03-24T09:36:05.095Z,12.47
2023-03-24T09:38:31.631Z,12.54
2023-03-24T09:41:01.047Z,12.59
2023-03-24T09:43:34.173Z,12.63
2023-03-24T09:46:03.042Z,12.69
2023-03-24T09:48:32.205Z,12.74
2023-03-24T09:51:14.933Z,12.81
2023-03-24T09:53:46.449Z,12.94
2023-03-24T09:56:14.913Z,13.00
2023-03-24T09:58:42.324Z,13.11
2023-03-24T10:01:12.436Z,13.22
2023-03-24T10:03:39.315Z,13.27
2023-03-24T10:06:18.176Z,13.31
2023-03-24T10:08:47.731Z,13.34
2023-03-24T10:11:19.336Z,13.35
2023-03-24T10:13:55.117Z,13.41
2023-03-24T10:16:34.078Z,13.44
2023-03-24T10:19:03.639Z,13.46
2023-03-24T10:21:32.352Z,13.48
2023-03-24T10:24:04.805Z,13.51
2023-03-24T10:26:34.299Z,13.55
2023-03-24T10:29:11.995Z,13.64
2023-03-24T10:31:40.035Z,13.71
2023-03-24T10:34:10.559Z,13.77
2023-03-24T10:36:39.409Z,13.84
2023-03-24T10:39:16.757Z,13.88
2023-03-24T10:41:46.809Z,13.95
2023-03-24T10:44:14.035Z,14.03
2023-03-24T10:46:46.422Z,14.06
2023-03-24T10:49:14.356Z,14.10
2023-03-24T10:51:45.121Z,14.21
2023-03-24T10:54:12.722Z,14.25
2023-03-24T10:56:40.388Z,14.29
2023-03-24T10:59:45.938Z,14.34
2023-03-24T11:02:12.470Z,14.41
2023-03-24T11:04:40.645Z,14.45
2023-03-24T11:07:13.007Z,14.50
2023-03-24T11:09:42.293Z,14.58
2023-03-24T11:12:41.504Z,14.64
2023-03-24T11:15:23.219Z,14.72
2023-03-24T11:17:55.081Z,14.78
2023-03-24T11:20:26.014Z,14.83
2023-03-24T11:22:57.285Z,14.93
2023-03-24T11:25:34.184Z,15.00
2023-03-24T11:28:02.828Z,15.04
2023-03-24T11:30:33.648Z,15.15
2023-03-24T11:33:00.287Z,15.21
2023-03-24T11:35:40.858Z,15.36
2023-03-24T11:38:08.465Z,15.38
2023-03-24T11:40:34.933Z,15.40
2023-03-24T11:43:03.237Z,15.46
2023-03-24T11:45:35.725Z,15.48
2023-03-24T11:48:05.475Z,15.58
2023-03-24T11:50:33.852Z,15.66
2023-03-24T11:53:18.987Z,15.75
2023-03-24T11:55:48.311Z,15.77
2023-03-24T11:58:24.993Z,15.77
2023-03-24T12:00:55.783Z,15.90
2023-03-24T12:03:22.411Z,15.99
2023-03-24T12:06:18.562Z,16.00
2023-03-24T12:08:51.629Z,16.01
2023-03-24T12:11:41.409Z,16.09
2023-03-24T12:14:09.164Z,16.10
2023-03-24T12:16:56.077Z,16.14
2023-03-24T12:19:31.703Z,16.17
2023-03-24T12:22:07.513Z,16.18
2023-03-24T12:24:54.080Z,16.26
2023-03-24T12:27:37.878Z,16.32
2023-03-24T12:30:16.443Z,16.36
2023-03-24T12:32:43.238Z,16.40
2023-03-24T12:35:18.799Z,16.39
2023-03-24T12:38:03.842Z,16.47
2023-03-24T12:40:30.385Z,16.62
2023-03-24T12:43:17.259Z,16.61
2023-03-24T12:45:53.307Z,16.72
2023-03-24T12:48:19.822Z,16.74
2023-03-24T12:50:46.722Z,16.73
2023-03-24T12:53:42.325Z,16.72
2023-03-24T12:56:31.267Z,16.75
2023-03-24T12:59:02.517Z,16.75
2023-03-24T13:01:34.332Z,16.79
2023-03-24T13:04:05.639Z,16.80
2023-03-24T13:06:38.878Z,16.87
2023-03-24T13:09:08.338Z,16.90
2023-03-24T13:11:38.676Z,16.86
2023-03-24T13:14:07.101Z,16.86
2023-03-24T13:16:36.038Z,16.84
2023-03-24T13:19:03.711Z,16.87
2023-03-24T13:21:33.597Z,16.82
2023-03-24T13:24:09.532Z,16.82
2023-03-24T13:26:45.439Z,16.80
2023-03-24T13:29:35.711Z,16.76
2023-03-24T13:32:20.296Z,16.77
2023-03-24T13:35:05.189Z,16.74
2023-03-24T13:37:45.628Z,16.72
2023-03-24T13:40:19.852Z,16.70
2023-03-24T13:42:48.739Z,16.68
2023-03-24T13:45:44.861Z,16.67
2023-03-24T13:48:11.456Z,16.70
2023-03-24T13:50:39.817Z,16.67
2023-03-24T13:53:10.259Z,16.70
2023-03-24T13:55:38.375Z,16.63
2023-03-24T13:58:24.335Z,16.64
2023-03-24T14:01:09.250Z,16.60
2023-03-24T14:03:38.683Z,16.59
2023-03-24T14:06:09.040Z,16.57
2023-03-24T14:08:41.789Z,16.53
2023-03-24T14:11:27.079Z,16.54
2023-03-24T14:13:53.758Z,16.54
2023-03-24T14:16:33.900Z,16.49
2023-03-24T14:19:19.903Z,16.48
2023-03-24T14:21:52.580Z,16.42
2023-03-24T14:24:27.180Z,16.46
2023-03-24T14:26:53.950Z,16.42
2023-03-24T14:29:40.379Z,16.44
2023-03-24T14:32:19.415Z,16.43
2023-03-24T14:34:57.947Z,16.40
2023-03-24T14:37:25.696Z,16.37
2023-03-24T14:39:52.324Z,16.36
2023-03-24T14:42:34.283Z,16.39
2023-03-24T14:45:23.778Z,16.38
2023-03-24T14:47:57.499Z,16.47
2023-03-24T14:50:25.690Z,16.56
2023-03-24T14:52:57.675Z,16.58
2023-03-24T14:55:25.419Z,16.62
2023-03-24T14:57:53.258Z,16.59
2023-03-24T15:00:25.007Z,16.63
2023-03-24T15:02:53.004Z,16.64
2023-03-24T15:05:25.602Z,16.64
2023-03-24T15:07:59.831Z,16.66
2023-03-24T15:10:27.490Z,16.66
2023-03-24T15:12:53.937Z,16.67
2023-03-24T15:15:23.254Z,16.65
2023-03-24T15:17:50.803Z,16.66
2023-03-24T15:20:20.498Z,16.67
2023-03-24T15:22:47.024Z,16.65
2023-03-24T15:25:13.917Z,16.66
2023-03-24T15:27:40.368Z,16.67
2023-03-24T15:30:13.700Z,16.66
2023-03-24T15:32:46.217Z,16.59
2023-03-24T15:35:14.602Z,16.57
2023-03-24T15:37:48.143Z,16.56
2023-03-24T15:40:27.098Z,16.52
2023-03-24T15:42:55.638Z,16.49
2023-03-24T15:45:31.562Z,16.45
2023-03-24T15:47:58.574Z,16.44
2023-03-24T15:50:33.846Z,16.44
2023-03-24T15:53:05.593Z,16.49
2023-03-24T15:55:34.889Z,16.49
2023-03-24T15:58:02.788Z,16.46
2023-03-24T16:00:35.834Z,16.38
2023-03-24T16:03:05.221Z,16.37
2023-03-24T16:05:32.143Z,16.36
2023-03-24T16:07:59.776Z,16.35
2023-03-24T16:10:33.637Z,16.30
2023-03-24T16:13:06.734Z,16.26
2023-03-24T16:15:33.159Z,16.25
2023-03-24T16:17:59.715Z,16.19
2023-03-24T16:20:26.218Z,16.16
2023-03-24T16:22:52.696Z,16.16
2023-03-24T16:25:19.131Z,16.16
2023-03-24T16:27:45.654Z,16.12
2023-03-24T16:30:20.724Z,16.13
2023-03-24T16:32:47.259Z,16.10
2023-03-24T16:35:13.760Z,16.10
2023-03-24T16:37:42.087Z,16.01
2023-03-24T16:40:19.235Z,15.92
2023-03-24T16:42:45.883Z,15.90
2023-03-24T16:45:12.324Z,15.93
2023-03-24T16:47:38.771Z,15.93
2023-03-24T16:50:24.042Z,15.94
2023-03-24T16:52:50.498Z,15.92
2023-03-24T16:55:17.003Z,15.88
2023-03-24T16:57:43.434Z,15.78
2023-03-24T17:00:11.136Z,15.82
2023-03-24T17:02:38.287Z,15.78
2023-03-24T17:05:18.191Z,15.71
2023-03-24T17:07:44.720Z,15.62
2023-03-24T17:10:11.171Z,15.59
2023-03-24T17:12:37.665Z,15.51
2023-03-24T17:15:04.266Z,15.43
2023-03-24T17:17:30.789Z,15.36
2023-03-24T17:19:59.938Z,15.29
2023-03-24T17:22:26.463Z,15.24
2023-03-24T17:24:57.741Z,15.13
2023-03-24T17:27:24.377Z,15.04
2023-03-24T17:29:50.897Z,15.01
2023-03-24T17:32:17.366Z,15.00
2023-03-24T17:34:45.362Z,14.91
2023-03-24T17:37:11.815Z,14.81
2023-03-24T17:39:38.271Z,14.71
2023-03-24T17:42:04.733Z,14.68
2023-03-24T17:44:32.586Z,14.65
2023-03-24T17:46:59.041Z,14.62
2023-03-24T17:49:25.687Z,14.62
2023-03-24T17:51:52.242Z,14.58
2023-03-24T17:54:21.222Z,14.57
2023-03-24T17:56:47.910Z,14.51
2023-03-24T17:59:14.396Z,14.45
2023-03-24T18:01:40.957Z,14.42
2023-03-24T18:04:07.674Z,14.36
2023-03-24T18:06:34.571Z,14.33
2023-03-24T18:09:01.081Z,14.30
2023-03-24T18:11:27.563Z,14.27
2023-03-24T18:13:54.175Z,14.21
2023-03-24T18:16:22.159Z,14.15
2023-03-24T18:18:49.642Z,14.05
2023-03-24T18:21:16.161Z,14.01
2023-03-24T18:23:42.597Z,13.98
2023-03-24T18:26:09.394Z,13.96
2023-03-24T18:28:37.567Z,13.92
2023-03-24T18:31:10.606Z,13.90
2023-03-24T18:33:37.062Z,13.83
2023-03-24T18:36:04.249Z,13.76
2023-03-24T18:38:30.754Z,13.76
2023-03-24T18:41:01.633Z,13.73
2023-03-24T18:43:30.262Z,13.70
2023-03-24T18:45:57.136Z,13.68
2023-03-24T18:48:23.943Z,13.63
2023-03-24T18:50:51.909Z,13.60
2023-03-24T18:53:18.923Z,13.50
2023-03-24T18:55:46.590Z,13.46
2023-03-24T18:58:17.027Z,13.42
2023-03-24T19:00:51.459Z,13.41
2023-03-24T19:03:18.791Z,13.39
2023-03-24T19:05:46.960Z,13.36
2023-03-24T19:08:14.827Z,13.34
2023-03-24T19:10:42.887Z,13.34
2023-03-24T19:13:10.920Z,13.31
2023-03-24T19:15:37.396Z,13.30
2023-03-24T19:18:04.000Z,13.28
2023-03-24T19:20:30.490Z,13.26
2023-03-24T19:22:56.996Z,13.25
2023-03-24T19:25:23.529Z,13.24
2023-03-24T19:27:49.963Z,13.21
2023-03-24T19:30:18.275Z,13.18
2023-03-24T19:32:46.672Z,13.17
2023-03-24T19:35:13.861Z,13.15
2023-03-24T19:37:40.535Z,13.14
2023-03-24T19:40:11.719Z,13.11
2023-03-24T19:42:42.122Z,13.10
2023-03-24T19:45:09.145Z,13.01
2023-03-24T19:47:36.775Z,12.99
2023-03-24T19:50:07.475Z,12.99
2023-03-24T19:52:34.216Z,12.99
2023-03-24T19:55:00.672Z,12.97
2023-03-24T19:57:30.314Z,12.97
2023-03-24T19:59:57.155Z,12.96
2023-03-24T20:02:24.713Z,12.96
2023-03-24T20:04:52.098Z,12.95
2023-03-24T20:07:18.588Z,12.93
2023-03-24T20:09:45.424Z,12.86
2023-03-24T20:12:11.859Z,12.86
2023-03-24T20:14:38.347Z,12.86
2023-03-24T20:17:05.369Z,12.85
2023-03-24T20:19:31.933Z,12.83
2023-03-24T20:21:58.410Z,12.81
2023-03-24T20:24:24.850Z,12.78
2023-03-24T20:26:51.679Z,12.76
2023-03-24T20:29:18.260Z,12.76
2023-03-24T20:31:44.910Z,12.73
2023-03-24T20:34:11.519Z,12.69
2023-03-24T20:36:41.340Z,12.68
2023-03-24T20:39:07.883Z,12.65
2023-03-24T20:41:34.548Z,12.61
2023-03-24T20:44:01.211Z,12.58
2023-03-24T20:46:27.688Z,12.56
2023-03-24T20:48:54.152Z,12.55
2023-03-24T20:51:20.717Z,12.56
2023-03-24T20:53:49.650Z,12.55
2023-03-24T20:56:17.093Z,12.53
2023-03-24T20:58:44.830Z,12.54
2023-03-24T21:01:20.750Z,12.52
2023-03-24T21:03:51.737Z,12.48
2023-03-24T21:06:19.088Z,12.45
2023-03-24T21:08:45.796Z,12.43
2023-03-24T21:11:12.695Z,12.38
2023-03-24T21:13:39.209Z,12.36
2023-03-24T21:16:08.286Z,12.32
2023-03-24T21:18:35.512Z,12.27
2023-03-24T21:21:04.866Z,12.27
2023-03-24T21:23:34.785Z,12.27
2023-03-24T21:26:01.960Z,12.26
2023-03-24T21:28:30.369Z,12.25
2023-03-24T21:31:06.040Z,12.24
2023-03-24T21:33:32.831Z,12.25
2023-03-24T21:35:59.314Z,12.23
2023-03-24T21:38:25.898Z,12.21
2023-03-24T21:40:58.687Z,12.18
2023-03-24T21:43:27.182Z,12.14
2023-03-24T21:45:54.553Z,12.14
2023-03-24T21:48:21.435Z,12.13
2023-03-24T21:50:52.342Z,12.10
2023-03-24T21:53:20.969Z,12.09
2023-03-24T21:55:52.100Z,12.10
2023-03-24T21:58:18.900Z,12.08
2023-03-24T22:00:46.376Z,12.06
2023-03-24T22:03:13.394Z,12.05
2023-03-24T22:05:40.821Z,12.04
2023-03-24T22:08:07.403Z,12.04
2023-03-24T22:10:34.952Z,12.00
2023-03-24T22:13:02.523Z,12.01
2023-03-24T22:15:32.519Z,11.96
2023-03-24T22:17:59.930Z,11.92
2023-03-24T22:20:28.228Z,11.92
2023-03-24T22:22:54.814Z,11.92
2023-03-24T22:25:21.414Z,11.92
2023-03-24T22:27:52.715Z,11.84
2023-03-24T22:30:19.444Z,11.84
2023-03-24T22:32:46.090Z,11.79
2023-03-24T22:35:12.624Z,11.79
2023-03-24T22:37:39.156Z,11.81
2023-03-24T22:40:06.696Z,11.81
2023-03-24T22:42:33.137Z,11.83
2023-03-24T22:44:59.624Z,11.81
2023-03-24T22:47:27.474Z,11.81
2023-03-24T22:49:54.061Z,11.79
2023-03-24T22:52:20.589Z,11.81
2023-03-24T22:54:47.097Z,11.82
2023-03-24T22:57:13.647Z,11.78
2023-03-24T22:59:40.212Z,11.77
2023-03-24T23:02:09.991Z,11.75
2023-03-24T23:04:37.246Z,11.74
2023-03-24T23:07:05.271Z,11.72
2023-03-24T23:09:31.820Z,11.72
2023-03-24T23:11:58.240Z,11.70
2023-03-24T23:14:25.623Z,11.69
2023-03-24T23:16:52.262Z,11.65
2023-03-24T23:19:18.850Z,11.61
2023-03-24T23:21:45.318Z,11.62
2023-03-24T23:24:12.054Z,11.64
2023-03-24T23:26:38.542Z,11.65
2023-03-24T23:29:05.049Z,11.64
2023-03-24T23:31:31.654Z,11.63
2023-03-24T23:33:58.408Z,11.62
2023-03-24T23:36:26.337Z,11.60
2023-03-24T23:38:53.483Z,11.58
2023-03-24T23:41:20.730Z,11.54
2023-03-24T23:43:48.970Z,11.55
2023-03-24T23:46:15.481Z,11.55
2023-03-24T23:48:41.966Z,11.56
2023-03-24T23:51:08.530Z,11.55
2023-03-24T23:53:35.948Z,11.45
2023-03-24T23:56:07.326Z,11.39
2023-03-24T23:58:35.066Z,11.41
